createdAt,value
2024-01-16T00:01:21.128Z,6.17
2024-01-16T00:03:24.283Z,8.23
2024-01-16T00:05:27.068Z,4.93
2024-01-16T00:07:30.036Z,7.80
2024-01-16T00:09:35.240Z,12.10
2024-01-16T00:11:42.256Z,8.17
2024-01-16T00:13:45.109Z,5.57
2024-01-16T00:15:50.616Z,9.83
2024-01-16T00:17:54.452Z,4.20
2024-01-16T00:20:01.720Z,8.03
2024-01-16T00:22:05.836Z,8.27
2024-01-16T00:24:08.976Z,4.93
2024-01-16T00:26:22.025Z,6.20
2024-01-16T00:28:24.735Z,10.13
2024-01-16T00:30:27.487Z,6.00
2024-01-16T00:32:31.662Z,5.63
2024-01-16T00:34:34.432Z,7.70
2024-01-16T00:36:38.082Z,5.83
2024-01-16T00:38:40.034Z,10.43
2024-01-16T00:40:43.569Z,5.63
2024-01-16T00:42:46.408Z,5.47
2024-01-16T00:44:49.301Z,4.73
2024-01-16T00:46:52.126Z,5.57
2024-01-16T00:48:56.670Z,7.83
2024-01-16T00:50:59.564Z,7.23
2024-01-16T00:53:02.478Z,7.23
2024-01-16T00:55:05.789Z,4.40
2024-01-16T00:57:08.543Z,6.67
2024-01-16T00:59:11.413Z,5.70
2024-01-16T01:01:14.212Z,6.23
2024-01-16T01:03:16.058Z,5.07
2024-01-16T01:05:20.183Z,7.13
2024-01-16T01:07:22.931Z,6.07
2024-01-16T01:09:24.776Z,8.53
2024-01-16T01:11:27.564Z,5.77
2024-01-16T01:13:30.366Z,4.60
2024-01-16T01:15:34.020Z,3.73
2024-01-16T01:17:36.935Z,9.43
2024-01-16T01:19:39.863Z,6.00
2024-01-16T01:21:43.954Z,6.63
2024-01-16T01:23:46.948Z,5.70
2024-01-16T01:25:48.854Z,5.10
2024-01-16T01:27:51.584Z,4.47
2024-01-16T01:29:54.388Z,6.27
2024-01-16T01:31:56.775Z,3.83
2024-01-16T01:33:59.803Z,7.47
2024-01-16T01:36:02.967Z,6.93
2024-01-16T01:38:08.723Z,6.20
2024-01-16T01:40:13.576Z,4.10
2024-01-16T01:42:17.541Z,6.77
2024-01-16T01:44:20.441Z,6.30
2024-01-16T01:46:23.733Z,8.77
2024-01-16T01:48:25.845Z,5.30
2024-01-16T01:50:28.832Z,6.00
2024-01-16T01:52:34.361Z,7.57
2024-01-16T01:54:39.974Z,9.67
2024-01-16T01:56:46.140Z,5.13
2024-01-16T01:58:49.308Z,7.10
2024-01-16T02:00:52.744Z,7.90
2024-01-16T02:02:55.680Z,7.30
2024-01-16T02:04:58.948Z,5.30
2024-01-16T02:07:02.328Z,6.30
2024-01-16T02:09:07.914Z,5.20
2024-01-16T02:11:12.298Z,8.47
2024-01-16T02:13:15.401Z,6.73
2024-01-16T02:15:18.123Z,7.03
2024-01-16T02:17:21.194Z,15.73
2024-01-16T02:19:25.894Z,8.13
2024-01-16T02:21:34.092Z,8.70
2024-01-16T02:23:38.282Z,6.40
2024-01-16T02:25:40.723Z,6.67
2024-01-16T02:27:43.637Z,5.13
2024-01-16T02:29:47.654Z,7.50
2024-01-16T02:31:50.439Z,9.20
2024-01-16T02:33:53.361Z,9.97
2024-01-16T02:35:56.201Z,6.37
2024-01-16T02:37:59.035Z,8.00
2024-01-16T02:40:07.224Z,6.90
2024-01-16T02:42:10.061Z,8.67
2024-01-16T02:44:12.582Z,7.43
2024-01-16T02:46:15.481Z,12.43
2024-01-16T02:48:18.379Z,10.00
2024-01-16T02:50:22.043Z,9.33
2024-01-16T02:52:24.965Z,8.93
2024-01-16T02:54:27.743Z,11.50
2024-01-16T02:56:31.922Z,7.67
2024-01-16T02:58:34.671Z,12.27
2024-01-16T03:00:38.240Z,8.60
2024-01-16T03:02:41.394Z,7.37
2024-01-16T03:04:44.216Z,7.43
2024-01-16T03:06:47.279Z,6.77
2024-01-16T03:08:49.394Z,7.70
2024-01-16T03:10:52.473Z,10.10
2024-01-16T03:12:56.613Z,6.63
2024-01-16T03:14:59.446Z,8.53
2024-01-16T03:17:03.285Z,5.10
2024-01-16T03:19:06.121Z,8.00
2024-01-16T03:21:09.583Z,4.67
2024-01-16T03:23:12.419Z,7.97
2024-01-16T03:25:15.437Z,6.70
2024-01-16T03:27:17.314Z,6.73
2024-01-16T03:29:21.500Z,8.60
2024-01-16T03:31:23.389Z,7.37
2024-01-16T03:33:26.407Z,7.73
2024-01-16T03:35:29.296Z,8.13
2024-01-16T03:37:32.227Z,5.37
2024-01-16T03:39:35.021Z,6.90
2024-01-16T03:41:37.798Z,7.13
2024-01-16T03:43:44.572Z,10.80
2024-01-16T03:45:48.721Z,7.97
2024-01-16T03:47:51.752Z,8.77
2024-01-16T03:49:54.559Z,6.10
2024-01-16T03:51:57.310Z,5.30
2024-01-16T03:53:59.127Z,6.60
2024-01-16T03:56:01.897Z,8.87
2024-01-16T03:58:04.955Z,8.10
2024-01-16T04:00:13.475Z,7.70
2024-01-16T04:02:17.583Z,12.50
2024-01-16T04:04:20.480Z,9.67
2024-01-16T04:06:23.300Z,8.03
2024-01-16T04:08:26.312Z,10.17
2024-01-16T04:10:29.046Z,7.97
2024-01-16T04:12:31.744Z,8.77
2024-01-16T04:14:34.473Z,11.43
2024-01-16T04:16:36.554Z,10.67
2024-01-16T04:18:42.138Z,9.30
2024-01-16T04:20:44.920Z,7.57
2024-01-16T04:22:47.704Z,6.60
2024-01-16T04:24:49.987Z,11.33
2024-01-16T04:26:53.101Z,7.23
2024-01-16T04:28:55.976Z,9.93
2024-01-16T04:30:58.973Z,5.93
2024-01-16T04:33:01.883Z,9.07
2024-01-16T04:35:06.689Z,11.93
2024-01-16T04:37:09.451Z,5.93
2024-01-16T04:39:13.127Z,9.23
2024-01-16T04:41:15.873Z,7.70
2024-01-16T04:43:18.663Z,10.90
2024-01-16T04:45:21.376Z,9.30
2024-01-16T04:47:24.178Z,7.40
2024-01-16T04:49:27.096Z,11.27
2024-01-16T04:51:31.231Z,8.20
2024-01-16T04:53:34.268Z,9.60
2024-01-16T04:55:36.135Z,16.27
2024-01-16T04:57:42.102Z,6.80
2024-01-16T04:59:44.877Z,10.17
2024-01-16T05:01:47.945Z,7.87
2024-01-16T05:03:50.706Z,10.10
2024-01-16T05:05:53.562Z,9.07
2024-01-16T05:07:57.892Z,12.77
2024-01-16T05:10:00.729Z,6.67
2024-01-16T05:12:03.585Z,13.00
2024-01-16T05:14:06.394Z,10.33
2024-01-16T05:16:09.225Z,12.57
2024-01-16T05:18:12.337Z,7.43
2024-01-16T05:20:15.492Z,5.73
2024-01-16T05:22:18.326Z,8.00
2024-01-16T05:24:22.462Z,8.73
2024-01-16T05:26:25.217Z,13.13
2024-01-16T05:28:27.992Z,8.97
2024-01-16T05:30:31.574Z,9.50
2024-01-16T05:32:33.474Z,8.87
2024-01-16T05:34:36.374Z,7.57
2024-01-16T05:36:38.328Z,7.83
2024-01-16T05:38:41.156Z,5.93
2024-01-16T05:40:45.411Z,7.50
2024-01-16T05:42:48.182Z,9.77
2024-01-16T05:44:51.108Z,9.70
2024-01-16T05:46:54.074Z,6.77
2024-01-16T05:48:56.981Z,11.47
2024-01-16T05:51:00.162Z,9.17
2024-01-16T05:53:03.272Z,12.00
2024-01-16T05:55:05.995Z,7.97
2024-01-16T05:57:10.121Z,8.67
2024-01-16T05:59:13.017Z,9.40
2024-01-16T06:01:15.855Z,9.30
2024-01-16T06:03:21.611Z,6.93
2024-01-16T06:05:39.433Z,7.50
2024-01-16T06:07:42.264Z,14.17
2024-01-16T06:09:44.109Z,8.87
2024-01-16T06:11:46.864Z,8.77
2024-01-16T06:13:50.689Z,11.27
2024-01-16T06:15:53.550Z,8.67
2024-01-16T06:17:56.513Z,9.93
2024-01-16T06:19:58.386Z,6.57
2024-01-16T06:22:01.577Z,7.67
2024-01-16T06:24:04.516Z,8.73
2024-01-16T06:26:09.905Z,10.13
2024-01-16T06:28:12.817Z,11.07
2024-01-16T06:30:17.665Z,9.70
2024-01-16T06:32:20.672Z,8.63
2024-01-16T06:34:23.555Z,9.23
2024-01-16T06:36:26.315Z,11.27
2024-01-16T06:38:29.062Z,7.53
2024-01-16T06:40:31.902Z,7.90
2024-01-16T06:42:34.710Z,9.37
2024-01-16T06:44:37.672Z,11.70
2024-01-16T06:46:40.931Z,11.87
2024-01-16T06:48:44.067Z,12.13
2024-01-16T06:50:46.961Z,11.50
2024-01-16T06:52:48.827Z,15.07
2024-01-16T06:54:51.651Z,9.53
2024-01-16T06:56:54.512Z,13.43
2024-01-16T06:58:57.585Z,10.70
2024-01-16T07:00:59.982Z,10.60
2024-01-16T07:03:04.843Z,10.37
2024-01-16T07:05:08.346Z,10.17
2024-01-16T07:07:11.210Z,10.87
2024-01-16T07:09:14.076Z,10.50
2024-01-16T07:11:16.894Z,11.23
2024-01-16T07:13:19.625Z,10.73
2024-01-16T07:15:22.392Z,11.03
2024-01-16T07:17:25.191Z,10.23
2024-01-16T07:19:29.546Z,12.43
2024-01-16T07:21:32.617Z,9.30
2024-01-16T07:23:35.403Z,15.03
2024-01-16T07:25:38.141Z,9.00
2024-01-16T07:27:46.671Z,10.20
2024-01-16T07:29:49.437Z,12.57
2024-01-16T07:31:53.480Z,10.23
2024-01-16T07:33:56.690Z,9.93
2024-01-16T07:36:01.172Z,14.23
2024-01-16T07:38:05.760Z,10.97
2024-01-16T07:40:10.536Z,10.00
2024-01-16T07:42:13.304Z,9.30
2024-01-16T07:44:16.110Z,11.00
2024-01-16T07:46:19.198Z,9.23
2024-01-16T07:48:22.059Z,8.57
2024-01-16T07:50:23.944Z,11.33
2024-01-16T07:52:29.825Z,9.50
2024-01-16T07:54:32.991Z,8.43
2024-01-16T07:56:36.084Z,11.93
2024-01-16T07:58:39.517Z,10.87
2024-01-16T08:00:42.758Z,10.57
2024-01-16T08:02:46.815Z,10.70
2024-01-16T08:04:49.609Z,9.77
2024-01-16T08:06:52.501Z,12.10
2024-01-16T08:08:56.727Z,12.17
2024-01-16T08:10:59.926Z,10.87
2024-01-16T08:13:02.745Z,12.23
2024-01-16T08:15:08.993Z,9.97
2024-01-16T08:17:11.937Z,12.07
2024-01-16T08:19:15.914Z,11.93
2024-01-16T08:21:18.837Z,10.80
2024-01-16T08:23:22.220Z,9.63
2024-01-16T08:25:26.485Z,15.60
2024-01-16T08:27:30.163Z,12.17
2024-01-16T08:29:32.951Z,11.50
2024-01-16T08:31:35.778Z,11.00
2024-01-16T08:33:45.518Z,12.53
2024-01-16T08:35:49.659Z,12.47
2024-01-16T08:37:52.782Z,9.93
2024-01-16T08:39:55.660Z,11.07
2024-01-16T08:41:59.857Z,12.73
2024-01-16T08:44:02.690Z,11.87
2024-01-16T08:46:04.779Z,11.93
2024-01-16T08:48:07.849Z,10.30
2024-01-16T08:50:11.393Z,12.20
2024-01-16T08:52:14.183Z,13.10
2024-01-16T08:54:17.067Z,9.27
2024-01-16T08:56:19.895Z,11.77
2024-01-16T08:58:24.245Z,11.17
2024-01-16T09:00:27.105Z,11.97
2024-01-16T09:02:31.975Z,9.70
2024-01-16T09:04:35.085Z,12.13
2024-01-16T09:06:38.069Z,11.57
2024-01-16T09:08:40.037Z,11.97
2024-01-16T09:10:42.866Z,11.27
2024-01-16T09:12:45.780Z,11.80
2024-01-16T09:14:49.954Z,9.63
2024-01-16T09:16:54.235Z,11.13
2024-01-16T09:18:57.052Z,11.40
2024-01-16T09:20:59.901Z,13.10
2024-01-16T09:23:03.402Z,10.33
2024-01-16T09:25:06.904Z,12.93
2024-01-16T09:27:10.883Z,11.37
2024-01-16T09:29:15.411Z,10.23
2024-01-16T09:31:18.708Z,10.17
2024-01-16T09:33:21.509Z,9.13
2024-01-16T09:35:24.405Z,9.50
2024-01-16T09:37:27.326Z,10.37
2024-01-16T09:39:31.280Z,12.10
2024-01-16T09:41:35.338Z,9.97
2024-01-16T09:43:39.200Z,14.70
2024-01-16T09:45:41.480Z,11.93
2024-01-16T09:47:46.067Z,9.83
2024-01-16T09:49:49.971Z,18.10
2024-01-16T09:51:53.173Z,9.97
2024-01-16T09:53:56.078Z,12.20
2024-01-16T09:56:04.214Z,14.60
2024-01-16T09:58:09.345Z,12.37
2024-01-16T10:00:14.089Z,11.27
2024-01-16T10:02:17.073Z,14.97
2024-01-16T10:04:21.428Z,11.77
2024-01-16T10:06:26.118Z,11.67
2024-01-16T10:08:30.192Z,10.67
2024-01-16T10:10:42.351Z,10.03
2024-01-16T10:12:52.361Z,9.37
2024-01-16T10:14:57.596Z,11.67
2024-01-16T10:17:00.349Z,13.20
2024-01-16T10:19:06.257Z,11.60
2024-01-16T10:21:22.931Z,11.57
2024-01-16T10:23:25.556Z,10.80
2024-01-16T10:25:28.583Z,10.37
2024-01-16T10:27:32.243Z,9.27
2024-01-16T10:29:43.529Z,11.80
2024-01-16T10:31:53.375Z,12.97
2024-01-16T10:33:56.282Z,9.50
2024-01-16T10:36:14.497Z,10.33
2024-01-16T10:38:22.635Z,10.30
2024-01-16T10:40:28.829Z,9.37
2024-01-16T10:42:33.725Z,14.50
2024-01-16T10:44:39.126Z,11.50
2024-01-16T10:46:41.994Z,12.13
2024-01-16T10:48:47.460Z,12.87
2024-01-16T10:50:53.591Z,13.13
2024-01-16T10:53:01.028Z,12.57
2024-01-16T10:55:06.085Z,11.03
2024-01-16T10:57:09.442Z,11.13
2024-01-16T10:59:18.907Z,13.83
2024-01-16T11:01:22.118Z,14.63
2024-01-16T11:03:31.223Z,16.47
2024-01-16T11:05:34.836Z,9.60
2024-01-16T11:07:38.024Z,9.83
2024-01-16T11:09:42.609Z,11.13
2024-01-16T11:11:46.956Z,10.00
2024-01-16T11:13:50.971Z,10.57
2024-01-16T11:15:54.460Z,9.60
2024-01-16T11:17:58.301Z,12.53
2024-01-16T11:20:13.976Z,12.20
2024-01-16T11:22:26.378Z,11.90
2024-01-16T11:24:29.192Z,14.63
2024-01-16T11:26:37.616Z,14.37
2024-01-16T11:28:40.575Z,17.53
2024-01-16T11:30:44.906Z,10.40
2024-01-16T11:32:47.857Z,12.00
2024-01-16T11:34:57.666Z,8.43
2024-01-16T11:37:01.491Z,10.60
2024-01-16T11:39:06.826Z,12.97
2024-01-16T11:41:09.591Z,12.87
2024-01-16T11:43:39.521Z,9.60
2024-01-16T11:45:55.176Z,10.73
2024-01-16T11:48:11.623Z,11.20
2024-01-16T11:50:30.386Z,13.80
2024-01-16T11:52:43.288Z,11.20
2024-01-16T11:54:46.368Z,12.17
2024-01-16T11:57:12.908Z,14.23
2024-01-16T11:59:50.355Z,8.73
2024-01-16T12:01:58.047Z,9.70
2024-01-16T12:04:04.630Z,10.77
2024-01-16T12:06:10.028Z,15.17
2024-01-16T12:08:14.790Z,8.67
2024-01-16T12:10:17.892Z,6.00
2024-01-16T12:12:22.148Z,6.53
2024-01-16T12:14:26.532Z,11.07
2024-01-16T12:16:28.405Z,11.23
2024-01-16T12:18:40.307Z,5.47
2024-01-16T12:20:47.164Z,5.70
2024-01-16T12:22:55.200Z,5.27
2024-01-16T12:24:59.764Z,7.07
2024-01-16T12:27:03.687Z,8.57
2024-01-16T12:29:06.925Z,11.50
2024-01-16T12:31:11.004Z,14.73
2024-01-16T12:33:15.184Z,8.47
2024-01-16T12:35:22.479Z,12.20
2024-01-16T12:37:25.842Z,9.03
2024-01-16T12:39:29.264Z,5.73
2024-01-16T12:41:42.152Z,5.87
2024-01-16T12:43:46.619Z,3.33
2024-01-16T12:45:56.611Z,6.33
2024-01-16T12:48:04.492Z,4.77
2024-01-16T12:50:07.665Z,6.30
2024-01-16T12:52:21.326Z,5.53
2024-01-16T12:54:25.110Z,7.03
2024-01-16T12:56:37.669Z,5.70
2024-01-16T12:58:41.475Z,6.10
2024-01-16T13:00:44.484Z,3.97
2024-01-16T13:02:51.733Z,4.57
2024-01-16T13:05:04.524Z,4.70
2024-01-16T13:07:08.029Z,6.53
2024-01-16T13:09:16.466Z,5.83
2024-01-16T13:11:33.001Z,7.33
2024-01-16T13:13:41.769Z,8.87
2024-01-16T13:15:44.823Z,9.80
2024-01-16T13:17:50.154Z,4.47
2024-01-16T13:19:53.026Z,5.17
2024-01-16T13:21:57.771Z,4.20
2024-01-16T13:24:00.588Z,14.07
2024-01-16T13:26:04.387Z,8.03
2024-01-16T13:28:08.582Z,9.87
2024-01-16T13:30:12.583Z,7.80
2024-01-16T13:32:15.614Z,12.60
2024-01-16T13:34:19.289Z,9.40
2024-01-16T13:36:40.514Z,12.40
2024-01-16T13:38:48.029Z,10.47
2024-01-16T13:40:51.592Z,8.93
2024-01-16T13:42:54.710Z,8.00
2024-01-16T13:44:58.073Z,10.87
2024-01-16T13:47:07.104Z,8.03
2024-01-16T13:49:13.444Z,4.63
2024-01-16T13:51:16.787Z,3.20
2024-01-16T13:53:19.649Z,5.70
2024-01-16T13:55:22.922Z,4.57
2024-01-16T13:57:25.840Z,5.67
2024-01-16T13:59:28.628Z,4.13
2024-01-16T14:01:31.403Z,4.73
2024-01-16T14:03:34.193Z,6.57
2024-01-16T14:05:37.405Z,6.03
2024-01-16T14:07:40.508Z,4.87
2024-01-16T14:09:45.494Z,7.10
2024-01-16T14:11:50.627Z,4.43
2024-01-16T14:13:54.151Z,4.33
2024-01-16T14:15:58.433Z,4.37
2024-01-16T14:18:01.368Z,5.63
2024-01-16T14:20:06.449Z,8.63
2024-01-16T14:22:09.656Z,3.77
2024-01-16T14:24:12.456Z,6.53
2024-01-16T14:26:16.798Z,68.70
2024-01-16T14:28:26.967Z,5.97
2024-01-16T14:30:34.295Z,5.37
2024-01-16T14:32:36.184Z,7.87
2024-01-16T14:34:39.146Z,9.60
2024-01-16T14:36:42.421Z,7.87
2024-01-16T14:38:45.352Z,11.63
2024-01-16T14:40:49.237Z,8.37
2024-01-16T14:44:58.651Z,8.50
2024-01-16T14:47:01.805Z,7.53
2024-01-16T14:49:04.707Z,12.73
2024-01-16T14:51:07.748Z,8.73
2024-01-16T14:53:11.247Z,8.13
2024-01-16T14:55:14.343Z,10.23
2024-01-16T14:57:17.893Z,9.77
2024-01-16T14:59:20.782Z,10.97
2024-01-16T15:01:25.252Z,10.37
2024-01-16T15:03:28.175Z,7.80
2024-01-16T15:05:31.333Z,9.40
2024-01-16T15:07:34.319Z,9.73
2024-01-16T15:09:38.735Z,8.70
2024-01-16T15:11:41.725Z,8.37
2024-01-16T15:13:45.829Z,7.63
2024-01-16T15:15:48.789Z,10.03
2024-01-16T15:17:53.254Z,10.27
2024-01-16T15:19:56.182Z,7.77
2024-01-16T15:21:59.459Z,10.47
2024-01-16T15:24:02.685Z,8.43
2024-01-16T15:26:05.947Z,14.07
2024-01-16T15:28:09.654Z,13.23
2024-01-16T15:30:14.800Z,8.53
2024-01-16T15:32:18.084Z,12.10
2024-01-16T15:34:22.323Z,9.17
2024-01-16T15:36:26.828Z,14.07
2024-01-16T15:38:29.634Z,8.10
2024-01-16T15:40:32.965Z,10.33
2024-01-16T15:42:37.707Z,12.03
2024-01-16T15:44:40.684Z,12.33
2024-01-16T15:46:55.992Z,11.23
2024-01-16T15:48:58.770Z,7.83
2024-01-16T15:51:05.186Z,9.63
2024-01-16T15:53:09.718Z,11.27
2024-01-16T15:55:12.854Z,12.03
2024-01-16T15:57:16.377Z,11.50
2024-01-16T15:59:18.228Z,10.93
2024-01-16T16:01:21.028Z,11.60
2024-01-16T16:03:24.140Z,14.10
2024-01-16T16:05:26.656Z,10.50
2024-01-16T16:07:30.982Z,12.10
2024-01-16T16:09:35.003Z,9.77
2024-01-16T16:11:39.596Z,10.93
2024-01-16T16:13:42.379Z,11.03
2024-01-16T16:15:45.141Z,11.77
2024-01-16T16:17:48.052Z,10.90
2024-01-16T16:19:51.138Z,9.63
2024-01-16T16:21:54.363Z,10.13
2024-01-16T16:23:59.616Z,9.27
2024-01-16T16:26:02.472Z,11.20
2024-01-16T16:28:06.429Z,12.13
2024-01-16T16:30:11.832Z,14.53
2024-01-16T16:32:14.688Z,12.50
2024-01-16T16:34:19.176Z,14.13
2024-01-16T16:36:21.265Z,12.30
2024-01-16T16:38:24.152Z,15.50
2024-01-16T16:40:27.392Z,16.47
2024-01-16T16:42:30.168Z,14.30
2024-01-16T16:44:32.964Z,13.53
2024-01-16T16:46:35.817Z,16.60
2024-01-16T16:48:44.224Z,13.93
2024-01-16T16:50:47.786Z,14.93
2024-01-16T16:52:50.638Z,16.57
2024-01-16T16:54:53.419Z,14.83
2024-01-16T16:56:57.610Z,11.67
2024-01-16T16:59:00.556Z,17.63
2024-01-16T17:01:03.662Z,16.33
2024-01-16T17:03:06.552Z,14.07
2024-01-16T17:05:10.529Z,14.83
2024-01-16T17:07:14.000Z,16.40
2024-01-16T17:09:21.175Z,14.00
2024-01-16T17:11:23.499Z,14.83
2024-01-16T17:13:30.035Z,13.87
2024-01-16T17:15:32.822Z,15.17
2024-01-16T17:17:36.192Z,15.50
2024-01-16T17:19:39.929Z,15.37
2024-01-16T17:21:43.051Z,15.70
2024-01-16T17:23:45.654Z,16.13
2024-01-16T17:25:48.587Z,16.97
2024-01-16T17:27:51.335Z,14.83
2024-01-16T17:29:55.859Z,16.90
2024-01-16T17:31:59.348Z,16.40
2024-01-16T17:34:02.314Z,19.83
2024-01-16T17:36:11.832Z,17.93
2024-01-16T17:38:14.919Z,19.97
2024-01-16T17:40:18.531Z,15.43
2024-01-16T17:42:21.387Z,22.13
2024-01-16T17:44:24.268Z,16.73
2024-01-16T17:46:28.574Z,13.33
2024-01-16T17:48:32.761Z,15.20
2024-01-16T17:50:37.801Z,13.57
2024-01-16T17:52:41.457Z,15.37
2024-01-16T17:54:44.889Z,13.93
2024-01-16T17:56:48.832Z,15.87
2024-01-16T17:58:51.665Z,13.33
2024-01-16T18:00:55.188Z,11.67
2024-01-16T18:02:59.854Z,14.80
2024-01-16T18:05:03.380Z,16.33
2024-01-16T18:07:06.953Z,15.57
2024-01-16T18:09:10.734Z,17.90
2024-01-16T18:11:14.337Z,14.27
2024-01-16T18:13:17.681Z,13.20
2024-01-16T18:15:22.351Z,16.83
2024-01-16T18:17:25.190Z,13.23
2024-01-16T18:19:34.328Z,17.67
2024-01-16T18:21:39.289Z,15.83
2024-01-16T18:23:42.918Z,12.70
2024-01-16T18:25:47.353Z,17.40
2024-01-16T18:27:50.444Z,16.30
2024-01-16T18:29:53.227Z,15.47
2024-01-16T18:32:01.982Z,14.10
2024-01-16T18:34:04.890Z,17.37
2024-01-16T18:36:10.786Z,14.67
2024-01-16T18:38:14.966Z,19.83
2024-01-16T18:40:19.532Z,17.40
2024-01-16T18:42:23.530Z,11.97
2024-01-16T18:44:26.325Z,18.77
2024-01-16T18:46:31.185Z,15.27
2024-01-16T18:48:35.647Z,19.63
2024-01-16T18:50:38.646Z,16.23
2024-01-16T18:52:44.100Z,18.70
2024-01-16T18:54:47.455Z,17.97
2024-01-16T18:56:51.442Z,18.70
2024-01-16T18:58:55.839Z,15.30
2024-01-16T19:01:00.259Z,16.30
2024-01-16T19:03:03.302Z,20.83
2024-01-16T19:05:05.982Z,18.30
2024-01-16T19:07:13.396Z,23.30
2024-01-16T19:09:18.804Z,19.30
2024-01-16T19:11:21.917Z,24.37
2024-01-16T19:13:25.736Z,17.70
2024-01-16T19:15:28.982Z,30.27
2024-01-16T19:17:31.907Z,54.90
2024-01-16T19:19:36.357Z,34.90
2024-01-16T19:21:39.806Z,32.17
2024-01-16T19:23:43.744Z,36.67
2024-01-16T19:25:49.847Z,40.57
2024-01-16T19:27:52.737Z,30.00
2024-01-16T19:29:54.610Z,25.77
2024-01-16T19:31:57.417Z,22.47
2024-01-16T19:33:59.837Z,22.87
2024-01-16T19:36:04.892Z,23.87
2024-01-16T19:38:07.813Z,22.33
2024-01-16T19:40:13.134Z,21.17
2024-01-16T19:42:17.535Z,18.87
2024-01-16T19:44:21.010Z,19.77
2024-01-16T19:46:23.849Z,19.43
2024-01-16T19:48:26.222Z,18.27
2024-01-16T19:50:29.730Z,20.80
2024-01-16T19:52:33.207Z,20.50
2024-01-16T19:54:36.200Z,19.77
2024-01-16T19:56:42.475Z,20.20
2024-01-16T19:58:50.900Z,19.10
2024-01-16T20:00:52.766Z,22.17
2024-01-16T20:02:56.621Z,20.50
2024-01-16T20:04:59.880Z,18.90
2024-01-16T20:07:03.916Z,16.60
2024-01-16T20:09:07.189Z,26.53
2024-01-16T20:11:10.110Z,24.23
2024-01-16T20:13:12.922Z,21.50
2024-01-16T20:15:21.414Z,20.73
2024-01-16T20:17:23.464Z,21.83
2024-01-16T20:19:26.499Z,20.00
2024-01-16T20:21:29.497Z,20.33
2024-01-16T20:23:32.410Z,23.27
2024-01-16T20:25:35.234Z,23.70
2024-01-16T20:27:38.037Z,22.47
2024-01-16T20:29:41.196Z,23.57
2024-01-16T20:31:46.166Z,19.93
2024-01-16T20:33:50.300Z,20.60
2024-01-16T20:35:54.206Z,19.43
2024-01-16T20:37:57.009Z,19.43
2024-01-16T20:39:59.899Z,26.83
2024-01-16T20:42:02.866Z,22.70
2024-01-16T20:44:06.022Z,23.40
2024-01-16T20:46:09.347Z,19.13
2024-01-16T20:48:13.660Z,24.80
2024-01-16T20:50:16.601Z,24.33
2024-01-16T20:52:18.500Z,22.17
2024-01-16T20:54:21.401Z,21.07
2024-01-16T20:56:24.451Z,20.50
2024-01-16T20:58:27.754Z,21.77
2024-01-16T21:00:34.827Z,21.07
2024-01-16T21:02:37.692Z,22.57
2024-01-16T21:04:41.938Z,21.33
2024-01-16T21:06:47.035Z,22.97
2024-01-16T21:08:50.146Z,23.80
2024-01-16T21:10:53.280Z,21.17
2024-01-16T21:12:56.150Z,25.00
2024-01-16T21:14:58.973Z,24.03
2024-01-16T21:17:01.910Z,21.47
2024-01-16T21:19:06.557Z,21.90
2024-01-16T21:21:10.952Z,19.33
2024-01-16T21:23:13.983Z,22.13
2024-01-16T21:25:20.675Z,19.93
2024-01-16T21:27:23.758Z,21.23
2024-01-16T21:29:26.768Z,26.53
2024-01-16T21:31:29.629Z,21.50
2024-01-16T21:33:32.559Z,19.83
2024-01-16T21:35:36.711Z,23.77
2024-01-16T21:37:41.452Z,22.93
2024-01-16T21:39:44.268Z,22.13
2024-01-16T21:41:47.379Z,20.37
2024-01-16T21:43:50.217Z,25.03
2024-01-16T21:45:53.311Z,21.50
2024-01-16T21:47:56.508Z,23.03
2024-01-16T21:50:01.743Z,19.23
2024-01-16T21:52:08.720Z,19.27
2024-01-16T21:54:13.141Z,21.77
2024-01-16T21:56:16.032Z,23.00
2024-01-16T21:58:19.936Z,23.03
2024-01-16T22:00:22.977Z,22.60
2024-01-16T22:02:26.639Z,23.27
2024-01-16T22:04:29.737Z,26.73
2024-01-16T22:06:32.032Z,28.80
2024-01-16T22:08:35.193Z,26.93
2024-01-16T22:10:42.899Z,22.13
2024-01-16T22:12:45.963Z,29.50
2024-01-16T22:14:52.003Z,25.77
2024-01-16T22:16:55.912Z,29.07
2024-01-16T22:18:58.711Z,25.03
2024-01-16T22:21:02.868Z,27.90
2024-01-16T22:23:04.811Z,25.23
2024-01-16T22:25:10.386Z,25.00
2024-01-16T22:27:14.538Z,27.73
2024-01-16T22:29:17.368Z,26.60
2024-01-16T22:31:20.377Z,25.97
2024-01-16T22:33:24.216Z,32.13
2024-01-16T22:35:26.874Z,27.97
2024-01-16T22:37:30.858Z,24.67
2024-01-16T22:39:35.245Z,29.73
2024-01-16T22:41:45.031Z,25.33
2024-01-16T22:43:48.276Z,28.30
2024-01-16T22:45:52.586Z,34.17
2024-01-16T22:47:57.313Z,30.40
2024-01-16T22:50:00.038Z,27.43
2024-01-16T22:52:04.858Z,24.17
2024-01-16T22:54:07.931Z,25.10
2024-01-16T22:56:10.581Z,28.50
2024-01-16T22:58:13.630Z,23.07
2024-01-16T23:00:21.828Z,21.57
2024-01-16T23:02:25.440Z,23.37
2024-01-16T23:04:30.057Z,25.80
2024-01-16T23:06:34.567Z,23.23
2024-01-16T23:08:37.560Z,22.27
2024-01-16T23:10:40.503Z,23.13
2024-01-16T23:12:44.797Z,18.03
2024-01-16T23:14:47.688Z,20.43
2024-01-16T23:16:52.306Z,23.70
2024-01-16T23:18:55.488Z,22.13
2024-01-16T23:20:58.616Z,19.17
2024-01-16T23:23:01.669Z,21.83
2024-01-16T23:25:05.396Z,23.70
2024-01-16T23:27:11.716Z,23.73
2024-01-16T23:29:14.499Z,18.90
2024-01-16T23:31:17.476Z,23.53
2024-01-16T23:33:21.858Z,22.47
2024-01-16T23:35:25.116Z,25.33
2024-01-16T23:37:31.096Z,18.97
2024-01-16T23:39:35.633Z,22.37
2024-01-16T23:41:38.877Z,22.03
2024-01-16T23:43:43.365Z,21.70
2024-01-16T23:45:47.042Z,24.37
2024-01-16T23:47:50.185Z,24.53
2024-01-16T23:49:54.608Z,25.23
2024-01-16T23:51:57.441Z,24.77
2024-01-16T23:54:02.100Z,27.07
2024-01-16T23:56:05.897Z,22.63
2024-01-16T23:58:09.810Z,21.57
